Главная страница
METAR-TAF:

METAR-TAF

Аэропорты :

Уоллис, Франция

широта: 13-14S, долгота: 176-10W, высота над уровнем моря: 23 м

METAR: отсутствует

Время: 07:09 (19:09 UTC)

Прогноз

Эта сводка был подготовлена 2 часа и 9 минут назад, в 17:00 UTC
Прогноз действительный с 23-го 18 UTC до 24-го 18 UTC
Ветер 10 Узел от восточно-юго-восточный
Видимость 10 км и более
Отдельные облака на высоте 1600 фута
Рассеянная облачность на высоте 4000 фута
Вероятность 40% :
временами
С 23-го 18 UTC до 23-го 21 UTC
Видимость: 2500 м
Рассеянная облачность на высоте 1200 фута
Отдельные облака на высоте 1500 фута, Кучево-дождевые.
сильные ливневые дожди
Вероятность 30% :
временами
С 24-го 03 UTC до 24-го 12 UTC
Видимость: 4000 м
небольшая облачность на высоте 2000 фута, мощно-кучевые.
ливневые дожди

TAF: NLWW 231700Z 2318/2418 12010KT 9999 SCT016 BKN040 PROB40 TEMPO 2318/2321 2500 +SHRA BKN012 SCT015CB PROB30 TEMPO 2403/2412 4000 SHRA FEW020TCU

Метеонаблюдения и прогнозы для более 4000 аэропортов (сводки METAR и TAF).

Имеющиеся станции представлены на карте желтыми и красными точками.

Чтобы увидеть название станции, наведите на нее мышь.

Затем щелкните, чтобы увидеть метеонаблюдения и метеопрогнозы.

Управление картой: чтобы увеличить масштаб, щелкните зеленые кнопки с черным крестиком; чтобы уменьшить масштаб, щелкните зеленую кнопку с тире; для просмотра соседних карт щелкайте зеленые стрелки.


METAR-TAF: